createdAt,value
2018-12-26T00:00:58.033Z,8.57
2018-12-26T00:06:01.903Z,6.33
2018-12-26T00:11:05.683Z,6.90
2018-12-26T00:16:09.410Z,10.50
2018-12-26T00:21:13.171Z,8.90
2018-12-26T00:26:16.905Z,6.67
2018-12-26T00:31:20.650Z,8.63
2018-12-26T00:36:24.390Z,9.97
2018-12-26T00:41:28.136Z,9.20
2018-12-26T00:46:31.969Z,9.93
2018-12-26T00:51:35.753Z,8.97
2018-12-26T00:56:39.565Z,9.60
2018-12-26T01:01:43.310Z,8.20
2018-12-26T01:06:47.028Z,8.93
2018-12-26T01:11:50.793Z,7.37
2018-12-26T01:16:54.566Z,12.20
2018-12-26T01:21:58.314Z,8.17
2018-12-26T01:27:02.048Z,8.40
2018-12-26T01:32:05.776Z,7.73
2018-12-26T01:37:09.625Z,8.57
2018-12-26T01:42:13.384Z,11.90
2018-12-26T01:47:17.243Z,9.23
2018-12-26T01:52:21.007Z,9.07
2018-12-26T01:57:24.756Z,8.97
2018-12-26T02:02:28.521Z,8.77
2018-12-26T02:07:32.476Z,9.07
2018-12-26T02:12:36.243Z,9.77
2018-12-26T02:17:40.002Z,8.90
2018-12-26T02:22:43.750Z,9.03
2018-12-26T02:27:47.510Z,8.47
2018-12-26T02:32:51.311Z,7.80
2018-12-26T02:37:55.114Z,7.60
2018-12-26T02:42:58.921Z,13.57
2018-12-26T02:48:02.649Z,8.90
2018-12-26T02:53:06.373Z,8.77
2018-12-26T02:58:10.117Z,9.63
2018-12-26T03:03:13.991Z,10.60
2018-12-26T03:08:17.738Z,11.00
2018-12-26T03:13:21.521Z,8.53
2018-12-26T03:18:25.363Z,10.10
2018-12-26T03:23:29.234Z,12.03
2018-12-26T03:28:32.979Z,12.13
2018-12-26T03:33:36.729Z,11.77
2018-12-26T03:38:40.467Z,11.03
2018-12-26T03:43:44.310Z,12.63
2018-12-26T03:48:48.061Z,15.03
2018-12-26T03:53:51.878Z,13.70
2018-12-26T03:58:55.693Z,14.23
2018-12-26T04:03:59.555Z,12.07
2018-12-26T04:09:04.118Z,10.07
2018-12-26T04:14:07.854Z,14.60
2018-12-26T04:19:11.634Z,12.80
2018-12-26T04:24:15.537Z,13.43
2018-12-26T04:29:19.374Z,12.70
2018-12-26T04:34:23.171Z,10.63
2018-12-26T04:39:26.912Z,11.77
2018-12-26T04:44:30.692Z,10.20
2018-12-26T04:49:36.499Z,9.10
2018-12-26T04:54:40.425Z,12.07
2018-12-26T04:59:44.185Z,10.43
2018-12-26T05:04:47.948Z,10.40
2018-12-26T05:09:51.943Z,7.53
2018-12-26T05:14:55.676Z,10.53
2018-12-26T05:19:59.656Z,9.67
2018-12-26T05:25:03.480Z,9.77
2018-12-26T05:30:07.499Z,10.20
2018-12-26T05:35:11.223Z,7.93
2018-12-26T05:40:15.064Z,6.67
2018-12-26T05:45:18.797Z,7.13
2018-12-26T05:50:22.540Z,5.78
2018-12-26T05:55:26.376Z,10.83
2018-12-26T06:00:30.274Z,8.53
2018-12-26T06:06:29.263Z,9.20
2018-12-26T06:11:32.985Z,7.93
2018-12-26T06:16:36.842Z,8.87
2018-12-26T06:21:40.574Z,8.93
2018-12-26T06:26:44.344Z,9.10
2018-12-26T06:31:48.114Z,8.37
2018-12-26T06:36:51.895Z,8.67
2018-12-26T06:41:55.630Z,9.90
2018-12-26T06:46:59.525Z,7.30
2018-12-26T06:52:03.306Z,8.10
2018-12-26T06:57:07.017Z,8.73
2018-12-26T07:02:10.748Z,7.27
2018-12-26T07:07:14.486Z,7.53
2018-12-26T07:12:18.219Z,7.87
2018-12-26T07:17:22.014Z,7.70
2018-12-26T07:22:25.757Z,6.57
2018-12-26T07:27:29.668Z,7.63
2018-12-26T07:32:33.463Z,5.80
2018-12-26T07:37:37.176Z,8.37
2018-12-26T07:42:40.924Z,7.00
2018-12-26T07:47:44.701Z,7.77
2018-12-26T07:52:48.492Z,7.50
2018-12-26T07:57:52.258Z,5.77
2018-12-26T08:02:56.015Z,6.37
2018-12-26T08:07:59.763Z,6.53
2018-12-26T08:13:03.522Z,8.33
2018-12-26T08:18:07.307Z,8.50
2018-12-26T08:23:11.032Z,8.30
2018-12-26T08:28:14.777Z,8.97
2018-12-26T08:33:18.526Z,8.53
2018-12-26T08:38:22.366Z,8.23
2018-12-26T08:43:26.121Z,9.27
2018-12-26T08:48:29.970Z,8.63
2018-12-26T08:53:33.718Z,9.43
2018-12-26T08:58:37.452Z,10.53
2018-12-26T09:03:41.250Z,6.87
2018-12-26T09:08:45.008Z,8.23
2018-12-26T09:13:48.752Z,7.27
2018-12-26T09:18:52.500Z,8.57
2018-12-26T09:23:56.249Z,8.70
2018-12-26T09:29:00.128Z,10.37
2018-12-26T09:34:03.845Z,11.83
2018-12-26T09:39:08.246Z,7.33
2018-12-26T09:44:11.986Z,10.13
2018-12-26T09:49:15.720Z,10.53
2018-12-26T09:54:19.547Z,12.43
2018-12-26T09:59:23.332Z,14.53
2018-12-26T10:04:27.180Z,9.97
2018-12-26T10:09:30.955Z,10.13
2018-12-26T10:14:34.748Z,11.03
2018-12-26T10:19:41.330Z,12.13
2018-12-26T10:24:45.161Z,9.63
2018-12-26T10:29:48.934Z,9.80
2018-12-26T10:34:52.683Z,10.23
2018-12-26T10:39:56.419Z,10.50
2018-12-26T10:45:00.179Z,11.10
2018-12-26T10:50:04.969Z,13.87
2018-12-26T10:55:08.699Z,11.03
2018-12-26T11:00:13.706Z,10.73
2018-12-26T11:05:17.442Z,10.23
2018-12-26T11:10:21.170Z,11.73
2018-12-26T11:15:24.941Z,11.53
2018-12-26T11:20:28.797Z,13.70
2018-12-26T11:25:32.538Z,10.00
2018-12-26T11:30:36.279Z,12.03
2018-12-26T11:35:40.003Z,13.97
2018-12-26T11:40:43.817Z,9.73
2018-12-26T11:45:47.561Z,14.10
2018-12-26T11:50:51.294Z,12.27
2018-12-26T11:55:55.028Z,13.37
2018-12-26T12:00:58.749Z,13.80
2018-12-26T12:06:02.539Z,11.67
2018-12-26T12:11:06.351Z,12.43
2018-12-26T12:16:10.091Z,13.97
2018-12-26T12:21:13.842Z,13.87
2018-12-26T12:26:17.580Z,12.47
2018-12-26T12:31:21.328Z,13.20
2018-12-26T12:36:25.124Z,11.90
2018-12-26T12:41:28.919Z,10.17
2018-12-26T12:46:32.735Z,12.93
2018-12-26T12:51:36.559Z,14.50
2018-12-26T12:56:40.294Z,13.50
2018-12-26T13:01:44.107Z,10.33
2018-12-26T13:06:47.870Z,12.50
2018-12-26T13:11:51.659Z,12.33
2018-12-26T13:16:55.384Z,11.20
2018-12-26T13:21:59.112Z,13.00
2018-12-26T13:27:02.874Z,12.83
2018-12-26T13:32:06.616Z,10.40
2018-12-26T13:37:10.372Z,11.97
2018-12-26T13:42:14.121Z,11.90
2018-12-26T13:47:17.920Z,13.07
2018-12-26T13:52:21.634Z,11.80
2018-12-26T13:57:25.454Z,13.00
2018-12-26T14:02:30.035Z,12.93
2018-12-26T14:07:33.768Z,11.37
2018-12-26T14:12:37.509Z,14.30
2018-12-26T14:17:41.242Z,12.17
2018-12-26T14:22:45.048Z,14.00
2018-12-26T14:27:48.802Z,13.40
2018-12-26T14:32:52.650Z,14.83
2018-12-26T14:37:56.359Z,12.40
2018-12-26T14:43:00.085Z,13.47
2018-12-26T14:48:03.877Z,14.27
2018-12-26T14:53:07.935Z,14.60
2018-12-26T14:58:11.676Z,10.40
2018-12-26T15:03:15.505Z,11.93
2018-12-26T15:08:19.339Z,13.97
2018-12-26T15:13:23.148Z,12.50
2018-12-26T15:18:27.017Z,12.57
2018-12-26T15:23:30.750Z,13.37
2018-12-26T15:28:34.492Z,11.43
2018-12-26T15:33:38.264Z,12.05
2018-12-26T15:38:41.983Z,12.07
2018-12-26T15:43:45.821Z,15.07
2018-12-26T15:48:49.533Z,11.60
2018-12-26T15:53:53.390Z,12.17
2018-12-26T15:58:57.159Z,12.40
2018-12-26T16:04:00.895Z,12.23
2018-12-26T16:09:06.700Z,13.00
2018-12-26T16:14:10.445Z,11.63
2018-12-26T16:19:14.191Z,12.87
2018-12-26T16:24:17.916Z,11.87
2018-12-26T16:29:21.662Z,14.33
2018-12-26T16:34:25.474Z,11.77
2018-12-26T16:39:35.715Z,13.23
2018-12-26T16:44:34.800Z,13.70
2018-12-26T16:49:38.559Z,12.60
2018-12-26T16:54:42.447Z,13.07
2018-12-26T16:59:46.207Z,11.77
2018-12-26T17:04:49.993Z,11.03
2018-12-26T17:09:53.876Z,12.37
2018-12-26T17:14:57.638Z,14.10
2018-12-26T17:20:03.792Z,13.07
2018-12-26T17:25:07.658Z,13.00
2018-12-26T17:31:03.791Z,12.60
2018-12-26T17:41:07.399Z,13.47
2018-12-26T17:46:11.154Z,14.13
2018-12-26T17:51:18.039Z,13.93
2018-12-26T17:56:37.376Z,11.57
2018-12-26T18:01:59.073Z,14.00
2018-12-26T18:07:02.796Z,12.63
2018-12-26T18:12:11.815Z,13.07
2018-12-26T18:17:12.001Z,13.13
2018-12-26T18:22:15.892Z,14.80
2018-12-26T18:27:19.630Z,17.10
2018-12-26T18:32:23.402Z,15.90
2018-12-26T18:37:27.191Z,14.73
2018-12-26T18:42:30.951Z,14.57
2018-12-26T18:47:34.679Z,14.13
2018-12-26T18:52:38.433Z,14.30
2018-12-26T18:57:42.173Z,14.63
2018-12-26T19:02:45.939Z,14.23
2018-12-26T19:07:49.661Z,14.17
2018-12-26T19:12:53.383Z,13.20
2018-12-26T19:17:57.116Z,11.93
2018-12-26T19:23:00.841Z,13.80
2018-12-26T19:28:04.581Z,11.60
2018-12-26T19:33:08.329Z,13.67
2018-12-26T19:38:12.062Z,11.23
2018-12-26T19:43:15.804Z,16.73
2018-12-26T19:48:19.604Z,12.83
2018-12-26T19:53:23.499Z,12.70
2018-12-26T19:58:29.189Z,13.43
2018-12-26T20:03:32.707Z,14.37
2018-12-26T20:08:36.451Z,15.30
2018-12-26T20:13:40.192Z,14.50
2018-12-26T20:18:43.937Z,15.03
2018-12-26T20:23:47.681Z,12.67
2018-12-26T20:28:51.448Z,16.77
2018-12-26T20:33:55.247Z,16.43
2018-12-26T20:38:59.089Z,13.35
2018-12-26T20:44:02.808Z,12.80
2018-12-26T20:49:06.554Z,13.20
2018-12-26T20:54:10.272Z,14.77
2018-12-26T20:59:14.032Z,15.93
2018-12-26T21:04:17.812Z,14.97
2018-12-26T21:09:21.667Z,15.17
2018-12-26T21:14:25.429Z,16.80
2018-12-26T21:19:29.188Z,16.63
2018-12-26T21:24:32.906Z,15.57
2018-12-26T21:29:36.628Z,15.70
2018-12-26T21:34:40.438Z,18.53
2018-12-26T21:39:44.507Z,17.77
2018-12-26T21:44:48.246Z,18.40
2018-12-26T21:49:51.985Z,17.77
2018-12-26T21:54:55.720Z,15.17
2018-12-26T21:59:59.435Z,19.17
2018-12-26T22:05:03.176Z,17.10
2018-12-26T22:10:06.949Z,18.47
2018-12-26T22:15:10.688Z,18.37
2018-12-26T22:20:14.418Z,19.87
2018-12-26T22:25:18.145Z,17.13
2018-12-26T22:30:21.877Z,17.33
2018-12-26T22:35:25.688Z,16.57
2018-12-26T22:40:29.417Z,17.13
2018-12-26T22:45:33.163Z,16.97
2018-12-26T22:50:36.967Z,18.03
2018-12-26T22:55:40.769Z,19.67
2018-12-26T23:00:47.000Z,18.20
2018-12-26T23:05:50.761Z,16.67
2018-12-26T23:10:54.546Z,18.00
2018-12-26T23:15:58.296Z,15.60
2018-12-26T23:21:02.169Z,15.73
2018-12-26T23:26:07.176Z,16.23
2018-12-26T23:31:11.031Z,16.67
2018-12-26T23:36:14.868Z,19.00
2018-12-26T23:41:18.623Z,18.23
2018-12-26T23:46:22.361Z,18.87
2018-12-26T23:51:26.177Z,15.83
2018-12-26T23:56:29.961Z,14.97
